Time;durP1;ratioP1;P1;durP2;ratioP2;P2;SDS_P1;SDS_P2;PMS_P1;PMS_P2;Temp;Humidity;BMP_temperature;BMP_pressure;BME280_temperature;BME280_humidity;BME280_pressure;Samples;Min_cycle;Max_cycle;Signal;HPM_P1;HPM_P2
2021/07/25 00:01:15;;;;;;;;;;;18.80;99.90;;;;;;5057226;28;20249;-84
2021/07/25 00:03:40;;;;;;;;;;;18.80;99.90;;;;;;5055651;28;19913;-83
2021/07/25 00:06:06;;;;;;;;;;;18.70;99.90;;;;;;5056439;28;20042;-84
2021/07/25 00:08:31;;;;;;;;;;;18.80;99.90;;;;;;5055740;28;19909;-82
2021/07/25 00:10:57;;;;;;;;;;;18.80;99.90;;;;;;5056267;28;20193;-84
2021/07/25 00:13:23;;;;;;;;;;;18.80;99.90;;;;;;5056540;28;20294;-83
2021/07/25 00:15:49;;;;;;;;;;;18.80;99.90;;;;;;5055327;28;19913;-82
2021/07/25 00:18:14;;;;;;;;;;;18.80;99.90;;;;;;5056076;28;19920;-83
2021/07/25 00:20:40;;;;;;;;;;;18.70;99.90;;;;;;5055235;28;19909;-82
2021/07/25 00:23:06;;;;;;;;;;;18.70;99.90;;;;;;5055807;28;19923;-84
2021/07/25 00:25:34;;;;;;;;;;;18.70;99.90;;;;;;5055771;28;20295;-82
2021/07/25 00:27:59;;;;;;;;;;;18.70;99.90;;;;;;5058636;28;19919;-82
2021/07/25 00:30:25;;;;;;;;;;;18.70;99.90;;;;;;5054700;28;20250;-82
2021/07/25 00:32:51;;;;;;;;;;;18.70;99.90;;;;;;5055431;28;19921;-84
2021/07/25 00:35:18;;;;;;;;;;;18.70;99.90;;;;;;5058285;28;19958;-81
2021/07/25 00:37:47;;;;;;;;;;;18.70;99.90;;;;;;5053693;28;19924;-84
2021/07/25 00:40:33;;;;;;;;;;;18.70;99.90;;;;;;5056568;28;19915;-83
2021/07/25 00:42:59;;;;;;;;;;;18.70;99.90;;;;;;5055908;28;19920;-82
2021/07/25 00:45:24;;;;;;;;;;;18.70;99.90;;;;;;5055371;28;19919;-83
2021/07/25 00:47:50;;;;;;;;;;;18.70;99.90;;;;;;5054754;28;19962;-83
2021/07/25 00:50:16;;;;;;;;;;;18.60;99.90;;;;;;5054497;28;20425;-84
2021/07/25 00:52:41;;;;;;;;;;;18.70;99.90;;;;;;5055953;28;19913;-84
2021/07/25 00:55:07;;;;;;;;;;;18.70;99.90;;;;;;5055437;28;19917;-85
2021/07/25 00:57:33;;;;;;;;;;;18.70;99.90;;;;;;5057177;28;20102;-84
2021/07/25 00:59:58;;;;;;;;;;;18.60;99.90;;;;;;5057514;28;19931;-82
2021/07/25 01:02:28;;;;;;;;;;;18.70;99.90;;;;;;5055609;28;20008;-83
2021/07/25 01:05:03;;;;;;;;;;;18.60;99.90;;;;;;5057389;28;19954;-84
2021/07/25 01:07:34;;;;;;;;;;;18.60;99.90;;;;;;5054186;28;19990;-83
2021/07/25 01:10:04;;;;;;;;;;;18.60;99.90;;;;;;5055569;28;20015;-82
2021/07/25 01:12:36;;;;;;;;;;;18.60;99.90;;;;;;5054961;28;19913;-85
2021/07/25 01:15:02;;;;;;;;;;;18.60;99.90;;;;;;5055591;28;19913;-84
2021/07/25 01:17:35;;;;;;;;;;;18.60;99.90;;;;;;5054771;28;19909;-83
2021/07/25 01:20:05;;;;;;;;;;;18.60;99.90;;;;;;5052133;28;20304;-83
2021/07/25 01:22:32;;;;;;;;;;;18.60;99.90;;;;;;5053149;28;19909;-83
2021/07/25 01:24:59;;;;;;;;;;;18.60;99.90;;;;;;5056993;28;19920;-82
2021/07/25 01:27:33;;;;;;;;;;;18.60;99.90;;;;;;5051043;28;20298;-84
2021/07/25 01:30:01;;;;;;;;;;;18.50;99.90;;;;;;5055747;28;19920;-84
2021/07/25 01:32:27;;;;;;;;;;;18.60;99.90;;;;;;5052243;28;19913;-84
2021/07/25 01:34:54;;;;;;;;;;;18.60;99.90;;;;;;5054460;28;19943;-83
2021/07/25 01:37:20;;;;;;;;;;;18.60;99.90;;;;;;5065415;28;19963;-83
2021/07/25 01:39:46;;;;;;;;;;;18.60;99.90;;;;;;5059561;28;19953;-85
2021/07/25 01:42:11;;;;;;;;;;;18.50;99.90;;;;;;5057216;28;20363;-84
2021/07/25 01:44:37;;;;;;;;;;;18.50;99.90;;;;;;5054962;28;19909;-84
2021/07/25 01:47:03;;;;;;;;;;;18.50;99.90;;;;;;5054268;28;19923;-84
2021/07/25 01:49:36;;;;;;;;;;;18.60;99.90;;;;;;5101101;27;19938;-84
2021/07/25 01:52:01;;;;;;;;;;;18.50;99.90;;;;;;5102017;28;20298;-84
2021/07/25 01:54:27;;;;;;;;;;;18.60;99.90;;;;;;5106769;28;19973;-85
2021/07/25 01:56:52;;;;;;;;;;;18.60;99.90;;;;;;5100972;28;20287;-85
2021/07/25 01:59:18;;;;;;;;;;;18.50;99.90;;;;;;5099133;28;20011;-84
2021/07/25 02:01:43;;;;;;;;;;;18.50;99.90;;;;;;5089477;28;19918;-84
2021/07/25 02:04:09;;;;;;;;;;;18.60;99.90;;;;;;5098249;28;20226;-83
2021/07/25 02:06:35;;;;;;;;;;;18.50;99.90;;;;;;5099968;28;19923;-84
2021/07/25 02:09:01;;;;;;;;;;;18.50;99.90;;;;;;5096400;28;19959;-85
2021/07/25 02:11:26;;;;;;;;;;;18.50;99.90;;;;;;5096635;28;19940;-83
2021/07/25 02:13:52;;;;;;;;;;;18.50;99.90;;;;;;5093739;28;19930;-84
2021/07/25 02:16:17;;;;;;;;;;;18.50;99.90;;;;;;5100680;28;19951;-83
2021/07/25 02:18:43;;;;;;;;;;;18.50;99.90;;;;;;5096058;28;19912;-83
2021/07/25 02:21:08;;;;;;;;;;;18.50;99.90;;;;;;5102019;28;19976;-84
2021/07/25 02:23:34;;;;;;;;;;;18.50;99.90;;;;;;5104090;28;19908;-83
2021/07/25 02:25:59;;;;;;;;;;;18.50;99.90;;;;;;5093990;28;19953;-83
2021/07/25 02:28:25;;;;;;;;;;;18.40;99.90;;;;;;5094248;28;19939;-87
2021/07/25 02:30:50;;;;;;;;;;;18.40;99.90;;;;;;5100837;28;19999;-85
2021/07/25 02:33:16;;;;;;;;;;;18.30;99.90;;;;;;5107240;28;19918;-86
2021/07/25 02:35:42;;;;;;;;;;;18.30;99.90;;;;;;5100154;28;19916;-86
2021/07/25 02:38:07;;;;;;;;;;;18.30;99.90;;;;;;5093737;28;20024;-85
2021/07/25 02:40:33;;;;;;;;;;;18.30;99.90;;;;;;5099771;28;19955;-84
2021/07/25 02:42:58;;;;;;;;;;;18.30;99.90;;;;;;5097952;28;19943;-86
2021/07/25 02:45:24;;;;;;;;;;;18.30;99.90;;;;;;5104442;28;19924;-88
2021/07/25 02:47:50;;;;;;;;;;;18.30;99.90;;;;;;5099171;28;20329;-85
2021/07/25 02:50:15;;;;;;;;;;;18.30;99.90;;;;;;5097795;28;19912;-83
2021/07/25 02:52:41;;;;;;;;;;;18.30;99.90;;;;;;5099307;28;19914;-87
2021/07/25 02:55:07;;;;;;;;;;;18.30;99.90;;;;;;5100708;28;20011;-87
2021/07/25 02:57:32;;;;;;;;;;;18.30;99.90;;;;;;5103259;28;19908;-87
2021/07/25 02:59:58;;;;;;;;;;;18.30;99.90;;;;;;5094784;28;19974;-86
2021/07/25 03:02:24;;;;;;;;;;;18.30;99.90;;;;;;5089845;28;19915;-86
2021/07/25 03:04:50;;;;;;;;;;;18.30;99.90;;;;;;5092846;28;20003;-84
2021/07/25 03:07:16;;;;;;;;;;;18.30;99.90;;;;;;5085195;28;19908;-83
2021/07/25 03:09:42;;;;;;;;;;;18.20;99.90;;;;;;5089773;28;20393;-85
2021/07/25 03:12:08;;;;;;;;;;;18.20;99.90;;;;;;5087870;28;20032;-87
2021/07/25 03:14:33;;;;;;;;;;;18.30;99.90;;;;;;5076225;28;20231;-85
2021/07/25 03:16:59;;;;;;;;;;;18.30;99.90;;;;;;5088793;28;19913;-86
2021/07/25 03:19:24;;;;;;;;;;;18.30;99.90;;;;;;5083321;28;19919;-87
2021/07/25 03:21:50;;;;;;;;;;;18.30;99.90;;;;;;5084697;28;19916;-87
2021/07/25 03:24:17;;;;;;;;;;;18.30;99.90;;;;;;5091073;28;20299;-86
2021/07/25 03:26:42;;;;;;;;;;;18.30;99.90;;;;;;5088733;28;19908;-87
2021/07/25 03:29:08;;;;;;;;;;;18.30;99.90;;;;;;5080437;28;19920;-87
2021/07/25 03:31:33;;;;;;;;;;;18.30;99.90;;;;;;5076430;28;19913;-87
2021/07/25 03:34:00;;;;;;;;;;;18.20;99.90;;;;;;5072869;28;19917;-86
2021/07/25 03:36:26;;;;;;;;;;;18.20;99.90;;;;;;5078406;28;19912;-85
2021/07/25 03:38:52;;;;;;;;;;;18.10;99.90;;;;;;5085794;28;20299;-82
2021/07/25 03:41:17;;;;;;;;;;;18.00;99.90;;;;;;5082131;28;20020;-87
2021/07/25 03:43:43;;;;;;;;;;;18.00;99.90;;;;;;5074559;28;19960;-86
2021/07/25 03:46:09;;;;;;;;;;;18.00;99.90;;;;;;5076968;28;19962;-86
2021/07/25 03:48:35;;;;;;;;;;;18.00;99.90;;;;;;5075501;28;20248;-86
2021/07/25 03:51:00;;;;;;;;;;;17.90;99.90;;;;;;5074546;28;20328;-86
2021/07/25 03:53:26;;;;;;;;;;;17.90;99.90;;;;;;5074048;28;19926;-87
2021/07/25 03:55:52;;;;;;;;;;;17.90;99.90;;;;;;5076104;28;19920;-86
2021/07/25 03:58:17;;;;;;;;;;;17.90;99.90;;;;;;5078417;28;19924;-87
2021/07/25 04:00:43;;;;;;;;;;;17.90;99.90;;;;;;5076189;28;19912;-85
2021/07/25 04:03:08;;;;;;;;;;;17.80;99.90;;;;;;5076020;28;19928;-84
2021/07/25 04:05:34;;;;;;;;;;;17.80;99.90;;;;;;5075954;28;19916;-86
2021/07/25 04:08:09;;;;;;;;;;;17.80;99.90;;;;;;5072088;28;19920;-86
2021/07/25 04:10:42;;;;;;;;;;;17.80;99.90;;;;;;5071330;28;19913;-86
2021/07/25 04:13:08;;;;;;;;;;;17.80;99.90;;;;;;5072727;28;19916;-85
2021/07/25 04:15:36;;;;;;;;;;;17.80;99.90;;;;;;5074388;28;19955;-86
2021/07/25 04:18:02;;;;;;;;;;;17.90;99.90;;;;;;5072438;28;19912;-86
2021/07/25 04:20:27;;;;;;;;;;;17.90;99.90;;;;;;5076142;28;20218;-85
2021/07/25 04:22:53;;;;;;;;;;;17.90;99.90;;;;;;5071913;28;19916;-87
2021/07/25 04:25:18;;;;;;;;;;;17.90;99.90;;;;;;5076733;28;19962;-85
2021/07/25 04:27:44;;;;;;;;;;;17.90;99.90;;;;;;5074968;28;20311;-86
2021/07/25 04:30:10;;;;;;;;;;;17.90;99.90;;;;;;5075569;28;20337;-85
2021/07/25 04:32:36;;;;;;;;;;;18.00;99.90;;;;;;5072034;28;20254;-87
2021/07/25 04:35:02;;;;;;;;;;;18.00;99.90;;;;;;5068445;28;19938;-86
2021/07/25 04:37:29;;;;;;;;;;;18.00;99.90;;;;;;5073037;28;19965;-85
2021/07/25 04:39:55;;;;;;;;;;;18.00;99.90;;;;;;5074677;28;20057;-85
2021/07/25 04:42:21;;;;;;;;;;;18.10;99.90;;;;;;5073446;28;20011;-86
2021/07/25 04:44:55;;;;;;;;;;;18.10;99.90;;;;;;5069036;28;19982;-85
2021/07/25 04:47:29;;;;;;;;;;;18.10;99.90;;;;;;5075318;28;19916;-87
2021/07/25 04:50:00;;;;;;;;;;;18.10;99.90;;;;;;5092822;28;19912;-86
2021/07/25 04:52:26;;;;;;;;;;;18.20;99.90;;;;;;5080602;28;19920;-86
2021/07/25 04:54:53;;;;;;;;;;;18.20;99.90;;;;;;5091954;28;19923;-85
2021/07/25 04:57:19;;;;;;;;;;;18.20;99.90;;;;;;5085770;28;19916;-84
2021/07/25 04:59:49;;;;;;;;;;;18.20;99.90;;;;;;5099043;28;20311;-86
2021/07/25 05:02:16;;;;;;;;;;;18.20;99.90;;;;;;5078615;28;19920;-85
2021/07/25 05:04:42;;;;;;;;;;;18.20;99.90;;;;;;5076552;28;19912;-87
2021/07/25 05:07:11;;;;;;;;;;;18.20;99.90;;;;;;5092455;28;20035;-86
2021/07/25 05:09:37;;;;;;;;;;;18.20;99.90;;;;;;5081141;28;19946;-85
2021/07/25 05:12:12;;;;;;;;;;;18.30;99.90;;;;;;5075646;28;20648;-86
2021/07/25 05:14:57;;;;;;;;;;;18.30;99.90;;;;;;5082816;28;19912;-86
2021/07/25 05:17:36;;;;;;;;;;;18.40;99.90;;;;;;5067540;28;19969;-86
2021/07/25 05:20:05;;;;;;;;;;;18.40;99.90;;;;;;5083070;28;19913;-86
2021/07/25 05:22:39;;;;;;;;;;;18.50;99.90;;;;;;5092977;28;20337;-85
2021/07/25 05:25:05;;;;;;;;;;;18.50;99.90;;;;;;5096641;28;19919;-87
2021/07/25 05:27:39;;;;;;;;;;;18.60;99.90;;;;;;5066703;28;20354;-84
2021/07/25 05:30:04;;;;;;;;;;;18.60;99.90;;;;;;5084451;28;19935;-87
2021/07/25 05:32:30;;;;;;;;;;;18.70;99.90;;;;;;5086893;28;19912;-85
2021/07/25 05:34:56;;;;;;;;;;;18.70;99.90;;;;;;5092724;28;19916;-85
2021/07/25 05:37:21;;;;;;;;;;;18.80;99.90;;;;;;5074783;28;19923;-86
2021/07/25 05:39:47;;;;;;;;;;;18.90;99.90;;;;;;5093987;28;19919;-86
2021/07/25 05:42:12;;;;;;;;;;;18.90;99.90;;;;;;5069301;28;20437;-85
2021/07/25 05:44:38;;;;;;;;;;;18.90;99.90;;;;;;5075598;28;19916;-85
2021/07/25 05:47:04;;;;;;;;;;;19.00;99.90;;;;;;5076165;28;19920;-86
2021/07/25 05:49:29;;;;;;;;;;;19.00;99.90;;;;;;5075090;28;20007;-86
2021/07/25 05:51:55;;;;;;;;;;;19.10;99.90;;;;;;5079757;28;19912;-85
2021/07/25 05:54:20;;;;;;;;;;;19.20;99.90;;;;;;5079624;28;19958;-84
2021/07/25 05:56:46;;;;;;;;;;;19.20;99.90;;;;;;5088275;28;20314;-85
2021/07/25 05:59:12;;;;;;;;;;;19.30;99.90;;;;;;5097438;28;19912;-87
2021/07/25 06:01:39;;;;;;;;;;;19.30;99.90;;;;;;5086591;28;19916;-86
2021/07/25 06:04:05;;;;;;;;;;;19.40;99.90;;;;;;5073670;28;19916;-86
2021/07/25 06:06:31;;;;;;;;;;;19.40;99.90;;;;;;5094447;28;20334;-85
2021/07/25 06:08:57;;;;;;;;;;;19.50;99.90;;;;;;5089642;28;19927;-86
2021/07/25 06:11:23;;;;;;;;;;;19.60;99.90;;;;;;5096694;28;19916;-85
2021/07/25 06:13:49;;;;;;;;;;;19.60;99.90;;;;;;5079596;28;20234;-85
2021/07/25 06:16:15;;;;;;;;;;;19.70;99.90;;;;;;5081643;28;19920;-85
2021/07/25 06:18:40;;;;;;;;;;;19.80;99.90;;;;;;5079058;28;20192;-84
2021/07/25 06:21:06;;;;;;;;;;;19.80;99.90;;;;;;5077926;28;19916;-85
2021/07/25 06:23:32;;;;;;;;;;;19.80;99.90;;;;;;5079469;28;19999;-85
2021/07/25 06:25:57;;;;;;;;;;;19.80;99.90;;;;;;5075104;28;19922;-87
2021/07/25 06:28:23;;;;;;;;;;;19.80;99.90;;;;;;5076648;28;19916;-85
2021/07/25 06:30:49;;;;;;;;;;;19.90;99.90;;;;;;5078956;28;19966;-86
2021/07/25 06:33:14;;;;;;;;;;;19.90;99.90;;;;;;5100525;28;19912;-87
2021/07/25 06:35:41;;;;;;;;;;;19.90;99.90;;;;;;5087855;28;19956;-87
2021/07/25 06:38:12;;;;;;;;;;;19.90;99.90;;;;;;5081567;28;20225;-87
2021/07/25 06:40:38;;;;;;;;;;;20.00;99.90;;;;;;5072896;28;19931;-87
2021/07/25 06:43:04;;;;;;;;;;;20.10;99.90;;;;;;5098832;28;19955;-86
2021/07/25 06:45:30;;;;;;;;;;;20.10;99.90;;;;;;5079033;28;20318;-86
2021/07/25 06:47:56;;;;;;;;;;;20.20;99.90;;;;;;5071546;28;20216;-88
2021/07/25 06:50:28;;;;;;;;;;;20.20;99.90;;;;;;5098272;28;19927;-86
2021/07/25 06:52:54;;;;;;;;;;;20.20;99.90;;;;;;5068578;28;19919;-87
2021/07/25 06:55:21;;;;;;;;;;;20.20;99.90;;;;;;5094469;28;19919;-87
2021/07/25 06:57:47;;;;;;;;;;;20.20;99.90;;;;;;5077728;28;19912;-86
2021/07/25 07:00:12;;;;;;;;;;;20.10;99.90;;;;;;5101332;28;20372;-86
2021/07/25 07:02:47;;;;;;;;;;;20.20;99.90;;;;;;5083729;28;19912;-87
2021/07/25 07:05:13;;;;;;;;;;;20.20;99.90;;;;;;5080079;28;19934;-87
2021/07/25 07:07:39;;;;;;;;;;;20.30;99.90;;;;;;5072712;28;19924;-86
2021/07/25 07:10:05;;;;;;;;;;;20.30;99.90;;;;;;5081540;28;20075;-86
2021/07/25 07:12:30;;;;;;;;;;;20.30;99.90;;;;;;5096519;28;20015;-86
2021/07/25 07:14:56;;;;;;;;;;;20.40;99.90;;;;;;5084795;28;19943;-86
2021/07/25 07:17:22;;;;;;;;;;;20.40;99.90;;;;;;5079617;28;19923;-86
2021/07/25 07:19:48;;;;;;;;;;;20.50;99.90;;;;;;5079863;28;19922;-88
2021/07/25 07:22:29;;;;;;;;;;;20.50;99.90;;;;;;5078383;28;19913;-87
2021/07/25 07:24:55;;;;;;;;;;;20.50;99.90;;;;;;5082133;28;19919;-87
2021/07/25 07:27:21;;;;;;;;;;;20.60;99.90;;;;;;5098067;28;19912;-86
2021/07/25 07:29:47;;;;;;;;;;;20.70;99.90;;;;;;5097756;28;19916;-88
2021/07/25 07:32:12;;;;;;;;;;;20.80;99.90;;;;;;5079123;28;19912;-86
2021/07/25 07:34:38;;;;;;;;;;;20.80;99.90;;;;;;5097150;28;19919;-87
2021/07/25 07:37:04;;;;;;;;;;;20.80;99.90;;;;;;5098029;28;19920;-84
2021/07/25 07:39:30;;;;;;;;;;;20.80;99.90;;;;;;5077181;28;19924;-86
2021/07/25 07:41:55;;;;;;;;;;;20.90;99.90;;;;;;5078900;28;19916;-86
2021/07/25 07:44:21;;;;;;;;;;;20.90;99.90;;;;;;5097242;28;19966;-85
2021/07/25 07:46:47;;;;;;;;;;;20.80;99.90;;;;;;5079358;28;19990;-85
2021/07/25 07:49:12;;;;;;;;;;;20.70;99.90;;;;;;5078100;28;20257;-86
2021/07/25 07:51:38;;;;;;;;;;;20.70;99.90;;;;;;5079678;28;19912;-86
2021/07/25 07:54:04;;;;;;;;;;;20.70;99.90;;;;;;5098363;28;19912;-87
2021/07/25 07:56:31;;;;;;;;;;;20.70;99.90;;;;;;5076007;28;19916;-86
2021/07/25 07:58:57;;;;;;;;;;;20.70;99.90;;;;;;5097464;28;20363;-86
2021/07/25 08:01:22;;;;;;;;;;;20.70;99.90;;;;;;5082696;28;19912;-86
2021/07/25 08:03:48;;;;;;;;;;;20.70;99.90;;;;;;5081373;28;20283;-86
2021/07/25 08:06:14;;;;;;;;;;;20.70;99.90;;;;;;5078700;28;20298;-86
2021/07/25 08:08:39;;;;;;;;;;;20.70;99.90;;;;;;5077907;28;19915;-87
2021/07/25 08:11:05;;;;;;;;;;;20.90;99.90;;;;;;5080891;28;20196;-84
2021/07/25 08:13:30;;;;;;;;;;;21.00;99.90;;;;;;5080454;28;20364;-86
2021/07/25 08:15:56;;;;;;;;;;;21.00;99.90;;;;;;5082350;28;20264;-86
2021/07/25 08:18:21;;;;;;;;;;;21.10;99.90;;;;;;5079223;28;19912;-87
2021/07/25 08:20:47;;;;;;;;;;;21.10;99.90;;;;;;5080265;28;20315;-86
2021/07/25 08:23:12;;;;;;;;;;;21.10;99.90;;;;;;5084208;28;19920;-86
2021/07/25 08:25:38;;;;;;;;;;;21.00;99.90;;;;;;5103166;28;19927;-86
2021/07/25 08:28:04;;;;;;;;;;;21.00;99.90;;;;;;5094586;28;19943;-86
2021/07/25 08:30:31;;;;;;;;;;;21.00;99.90;;;;;;5084253;28;20230;-86
2021/07/25 08:32:56;;;;;;;;;;;21.10;99.90;;;;;;5098558;28;19907;-87
2021/07/25 08:35:22;;;;;;;;;;;21.10;99.90;;;;;;5105058;28;20037;-86
2021/07/25 08:37:47;;;;;;;;;;;21.10;99.90;;;;;;5083051;28;19916;-87
2021/07/25 08:40:14;;;;;;;;;;;21.10;99.90;;;;;;5102820;28;19918;-87
2021/07/25 08:42:44;;;;;;;;;;;21.10;99.90;;;;;;5086944;28;20318;-89
2021/07/25 08:45:10;;;;;;;;;;;21.10;99.90;;;;;;5075256;28;19922;-87
2021/07/25 08:47:37;;;;;;;;;;;21.10;99.90;;;;;;5080283;28;19928;-87
2021/07/25 08:50:04;;;;;;;;;;;21.20;99.90;;;;;;5104124;28;19926;-87
2021/07/25 08:52:31;;;;;;;;;;;21.30;99.90;;;;;;5106628;28;19999;-87
2021/07/25 08:54:57;;;;;;;;;;;21.50;99.90;;;;;;5102008;28;19957;-86
2021/07/25 08:57:33;;;;;;;;;;;21.90;99.90;;;;;;5095560;28;20272;-86
2021/07/25 08:59:59;;;;;;;;;;;22.00;99.90;;;;;;5079747;28;19970;-88
2021/07/25 09:02:29;;;;;;;;;;;22.30;99.90;;;;;;5086067;28;20795;-87
2021/07/25 09:04:55;;;;;;;;;;;22.40;99.90;;;;;;5079846;28;20056;-86
2021/07/25 09:07:22;;;;;;;;;;;22.80;99.90;;;;;;5091541;28;20252;-86
2021/07/25 09:09:49;;;;;;;;;;;22.80;99.90;;;;;;5085763;28;20346;-89
2021/07/25 09:12:16;;;;;;;;;;;22.90;99.90;;;;;;5099407;28;19923;-87
2021/07/25 09:14:43;;;;;;;;;;;23.00;99.90;;;;;;5088027;28;19935;-88
2021/07/25 09:17:08;;;;;;;;;;;23.20;99.90;;;;;;5082727;28;20183;-87
2021/07/25 09:19:34;;;;;;;;;;;23.10;99.90;;;;;;5086956;28;19918;-86
2021/07/25 09:22:00;;;;;;;;;;;23.30;99.90;;;;;;5079772;28;19911;-90
2021/07/25 09:24:30;;;;;;;;;;;23.50;99.90;;;;;;5081645;28;19934;-87
2021/07/25 09:26:55;;;;;;;;;;;23.60;99.90;;;;;;5080303;28;19920;-88
2021/07/25 09:29:22;;;;;;;;;;;23.90;99.90;;;;;;5081284;28;19938;-89
2021/07/25 09:31:48;;;;;;;;;;;24.20;99.90;;;;;;5088445;28;20211;-88
2021/07/25 09:34:34;;;;;;;;;;;24.40;99.90;;;;;;5076888;28;19986;-88
2021/07/25 09:37:07;;;;;;;;;;;24.70;99.90;;;;;;5096699;28;19912;-85
2021/07/25 09:39:40;;;;;;;;;;;24.80;99.90;;;;;;5071376;28;19981;-89
2021/07/25 09:42:07;;;;;;;;;;;24.70;99.90;;;;;;5073770;28;19916;-89
2021/07/25 09:44:53;;;;;;;;;;;24.80;99.90;;;;;;5079655;28;19919;-89
2021/07/25 09:47:30;;;;;;;;;;;25.00;99.90;;;;;;5080381;28;19912;-89
2021/07/25 09:49:56;;;;;;;;;;;24.90;99.90;;;;;;5068905;28;20596;-90
2021/07/25 09:52:48;;;;;;;;;;;24.50;99.90;;;;;;5084031;28;19913;-88
2021/07/25 09:55:14;;;;;;;;;;;24.50;99.90;;;;;;5095735;28;19912;-89
2021/07/25 09:57:52;;;;;;;;;;;24.60;99.90;;;;;;5085597;28;19935;-89
2021/07/25 10:00:18;;;;;;;;;;;24.60;99.90;;;;;;5101519;28;19916;-86
2021/07/25 10:02:45;;;;;;;;;;;24.60;99.90;;;;;;5082515;28;19912;-89
2021/07/25 10:05:15;;;;;;;;;;;24.50;99.90;;;;;;5079652;28;19943;-88
2021/07/25 10:07:41;;;;;;;;;;;24.40;99.90;;;;;;5085669;28;20010;-86
2021/07/25 10:10:09;;;;;;;;;;;24.40;99.90;;;;;;5093941;28;20310;-83
2021/07/25 10:12:35;;;;;;;;;;;24.30;99.90;;;;;;5082269;28;19947;-93
2021/07/25 10:15:02;;;;;;;;;;;24.20;99.90;;;;;;5080846;28;19919;-87
2021/07/25 10:17:31;;;;;;;;;;;24.10;99.90;;;;;;5081069;28;19916;-89
2021/07/25 10:19:58;;;;;;;;;;;24.00;99.90;;;;;;5077074;28;20371;-88
2021/07/25 10:22:26;;;;;;;;;;;24.00;99.90;;;;;;5078002;28;19973;-86
2021/07/25 10:24:54;;;;;;;;;;;24.00;99.90;;;;;;5075998;28;19912;-88
2021/07/25 10:27:20;;;;;;;;;;;24.00;99.90;;;;;;5065213;28;19908;-88
2021/07/25 10:29:47;;;;;;;;;;;24.00;99.90;;;;;;5074339;28;20269;-88
2021/07/25 10:32:17;;;;;;;;;;;23.90;99.90;;;;;;5068055;28;20008;-93
2021/07/25 10:34:43;;;;;;;;;;;23.90;99.90;;;;;;5077916;28;19919;-88
2021/07/25 10:37:12;;;;;;;;;;;23.70;99.90;;;;;;5079250;28;20334;-88
2021/07/25 10:39:42;;;;;;;;;;;23.70;99.90;;;;;;5088354;28;19916;-86
2021/07/25 10:42:08;;;;;;;;;;;23.70;99.90;;;;;;5082279;28;19920;-88
2021/07/25 10:44:34;;;;;;;;;;;24.00;99.90;;;;;;5081849;28;19916;-89
2021/07/25 10:47:30;;;;;;;;;;;24.30;99.90;;;;;;5087772;28;20215;-88
2021/07/25 10:49:59;;;;;;;;;;;24.20;99.90;;;;;;5015509;28;19960;-91
2021/07/25 10:52:25;;;;;;;;;;;24.30;99.90;;;;;;5013883;28;20316;-92
2021/07/25 10:54:51;;;;;;;;;;;24.10;99.90;;;;;;5018493;28;20286;-89
2021/07/25 10:57:18;;;;;;;;;;;23.90;99.90;;;;;;5015288;28;19957;-87
2021/07/25 10:59:50;;;;;;;;;;;23.90;99.90;;;;;;5019051;28;19920;-90
2021/07/25 11:02:21;;;;;;;;;;;23.80;99.90;;;;;;5028902;28;20013;-92
2021/07/25 11:04:50;;;;;;;;;;;23.70;99.90;;;;;;5036390;28;19944;-88
2021/07/25 11:07:24;;;;;;;;;;;23.70;99.90;;;;;;5022706;28;19960;-88
2021/07/25 11:09:56;;;;;;;;;;;23.60;99.90;;;;;;5025947;28;19970;-88
2021/07/25 11:12:22;;;;;;;;;;;23.60;99.90;;;;;;5026243;28;19939;-85
2021/07/25 11:14:57;;;;;;;;;;;23.60;99.90;;;;;;5013668;28;19921;-86
2021/07/25 11:17:42;;;;;;;;;;;23.60;99.90;;;;;;5016790;28;20006;-86
2021/07/25 11:20:07;;;;;;;;;;;23.60;99.90;;;;;;5034708;28;19928;-85
2021/07/25 11:22:42;;;;;;;;;;;23.60;99.90;;;;;;5028876;28;20681;-87
2021/07/25 11:25:08;;;;;;;;;;;23.50;99.90;;;;;;5009290;28;20294;-86
2021/07/25 11:27:46;;;;;;;;;;;23.40;99.90;;;;;;5101528;28;19941;-88
2021/07/25 11:30:12;;;;;;;;;;;23.40;99.90;;;;;;5082159;28;19913;-88
2021/07/25 11:32:37;;;;;;;;;;;23.40;99.90;;;;;;5074937;28;19968;-90
2021/07/25 11:35:04;;;;;;;;;;;23.40;99.90;;;;;;5083225;28;19916;-88
2021/07/25 11:37:40;;;;;;;;;;;23.10;99.90;;;;;;5086930;28;19912;-88
2021/07/25 11:40:07;;;;;;;;;;;23.10;99.90;;;;;;5075868;28;19912;-89
2021/07/25 11:42:33;;;;;;;;;;;23.00;99.90;;;;;;5066997;28;19965;-84
2021/07/25 11:45:06;;;;;;;;;;;23.00;99.90;;;;;;5080104;28;19923;-85
2021/07/25 11:47:33;;;;;;;;;;;23.00;99.90;;;;;;5077547;28;19995;-88
2021/07/25 11:49:59;;;;;;;;;;;23.00;99.90;;;;;;5079238;28;20002;-84
2021/07/25 11:52:27;;;;;;;;;;;23.00;99.90;;;;;;5103179;28;19961;-89
2021/07/25 11:54:54;;;;;;;;;;;22.90;99.90;;;;;;5066998;28;19921;-88
2021/07/25 11:57:24;;;;;;;;;;;22.90;99.90;;;;;;5111242;28;19944;-88
2021/07/25 11:59:54;;;;;;;;;;;22.90;99.90;;;;;;5077793;28;19964;-89
2021/07/25 12:02:23;;;;;;;;;;;22.90;99.90;;;;;;5080502;28;20217;-90
2021/07/25 12:04:49;;;;;;;;;;;22.80;99.90;;;;;;5095759;28;20011;-86
2021/07/25 12:07:16;;;;;;;;;;;22.80;99.90;;;;;;5074690;28;19912;-85
2021/07/25 12:09:43;;;;;;;;;;;22.70;99.90;;;;;;5081400;28;20003;-80
2021/07/25 12:12:09;;;;;;;;;;;22.50;99.90;;;;;;5076317;28;20274;-79
2021/07/25 12:14:35;;;;;;;;;;;22.50;99.90;;;;;;5078619;28;19972;-78
2021/07/25 12:17:02;;;;;;;;;;;22.30;99.90;;;;;;5072112;28;19912;-83
2021/07/25 12:19:32;;;;;;;;;;;22.30;99.90;;;;;;5088124;28;19916;-80
2021/07/25 12:22:05;;;;;;;;;;;22.30;99.90;;;;;;5088878;28;20191;-81
2021/07/25 12:24:32;;;;;;;;;;;22.40;99.90;;;;;;5072779;28;19912;-88
2021/07/25 12:26:58;;;;;;;;;;;22.60;99.90;;;;;;5094014;28;19916;-82
2021/07/25 12:29:54;;;;;;;;;;;22.50;99.90;;;;;;5075128;28;19924;-78
2021/07/25 12:32:21;;;;;;;;;;;22.40;99.90;;;;;;5008717;28;19981;-78
2021/07/25 12:34:46;;;;;;;;;;;22.30;99.90;;;;;;5012961;28;20352;-77
2021/07/25 12:37:24;;;;;;;;;;;22.20;99.90;;;;;;4994543;28;19920;-77
2021/07/25 12:40:09;;;;;;;;;;;22.10;99.90;;;;;;4999163;28;19924;-77
2021/07/25 12:42:38;;;;;;;;;;;21.90;99.90;;;;;;5013261;28;19917;-78
2021/07/25 12:45:22;;;;;;;;;;;21.80;99.90;;;;;;5013209;28;19988;-78
2021/07/25 12:47:48;;;;;;;;;;;21.70;99.90;;;;;;5012068;28;19925;-78
2021/07/25 12:50:14;;;;;;;;;;;21.70;99.90;;;;;;5004418;28;20236;-82
2021/07/25 12:52:40;;;;;;;;;;;21.80;99.90;;;;;;4996176;28;19979;-77
2021/07/25 12:55:07;;;;;;;;;;;22.00;99.90;;;;;;5010226;28;19953;-78
2021/07/25 12:57:33;;;;;;;;;;;22.10;99.90;;;;;;4996453;28;19921;-81
2021/07/25 12:59:58;;;;;;;;;;;22.30;99.90;;;;;;4996178;28;20005;-78
2021/07/25 13:05:08;;;;;;;;;;;22.60;99.90;;;;;;5012089;28;19952;-78
2021/07/25 13:07:34;;;;;;;;;;;22.70;99.90;;;;;;4997004;28;19921;-79
2021/07/25 13:10:00;;;;;;;;;;;22.90;99.90;;;;;;5071313;28;20011;-78
2021/07/25 13:12:28;;;;;;;;;;;23.00;99.90;;;;;;5071372;28;20261;-81
2021/07/25 13:14:54;;;;;;;;;;;23.10;99.90;;;;;;5071925;28;20223;-81
2021/07/25 13:17:20;;;;;;;;;;;23.10;99.90;;;;;;5078574;28;20184;-82
2021/07/25 13:19:45;;;;;;;;;;;23.20;99.90;;;;;;5078252;28;19923;-83
2021/07/25 13:22:11;;;;;;;;;;;23.20;99.90;;;;;;5079359;28;20358;-83
2021/07/25 13:24:37;;;;;;;;;;;23.10;99.90;;;;;;5084313;28;20315;-82
2021/07/25 13:27:03;;;;;;;;;;;23.20;99.90;;;;;;5083989;28;19958;-82
2021/07/25 13:29:31;;;;;;;;;;;23.40;99.90;;;;;;5085485;28;19929;-84
2021/07/25 13:31:56;;;;;;;;;;;23.50;99.90;;;;;;5069893;28;19928;-83
2021/07/25 13:34:22;;;;;;;;;;;23.50;99.90;;;;;;5071793;28;19916;-83
2021/07/25 13:36:48;;;;;;;;;;;23.50;99.90;;;;;;5070906;28;19923;-82
2021/07/25 13:39:13;;;;;;;;;;;23.60;99.90;;;;;;5074045;28;20001;-85
2021/07/25 13:41:39;;;;;;;;;;;23.80;99.90;;;;;;5069582;28;20346;-84
2021/07/25 13:44:06;;;;;;;;;;;23.90;99.90;;;;;;5070536;28;19923;-85
2021/07/25 13:46:53;;;;;;;;;;;24.00;99.90;;;;;;5073601;28;19912;-85
2021/07/25 13:49:20;;;;;;;;;;;24.00;99.90;;;;;;5070827;28;20058;-82
2021/07/25 13:51:48;;;;;;;;;;;24.00;99.90;;;;;;5075747;28;20358;-86
2021/07/25 13:54:14;;;;;;;;;;;24.10;99.90;;;;;;5070983;28;19923;-87
2021/07/25 13:56:42;;;;;;;;;;;24.00;99.90;;;;;;5073137;28;19917;-86
2021/07/25 13:59:08;;;;;;;;;;;23.90;99.90;;;;;;5072969;28;20220;-86
2021/07/25 14:01:33;;;;;;;;;;;23.80;99.90;;;;;;5068183;28;19923;-84
2021/07/25 14:03:59;;;;;;;;;;;23.70;99.90;;;;;;5072012;28;20274;-84
2021/07/25 14:06:24;;;;;;;;;;;23.60;99.90;;;;;;5078030;28;19916;-85
2021/07/25 14:08:50;;;;;;;;;;;23.60;99.90;;;;;;5067306;28;19923;-84
2021/07/25 14:11:15;;;;;;;;;;;23.60;99.90;;;;;;5078575;28;19943;-82
2021/07/25 14:13:41;;;;;;;;;;;23.60;99.90;;;;;;5073000;28;19966;-85
2021/07/25 14:16:16;;;;;;;;;;;23.40;99.90;;;;;;5071901;28;19916;-85
2021/07/25 14:18:42;;;;;;;;;;;23.40;99.90;;;;;;5065124;28;19919;-88
2021/07/25 14:21:08;;;;;;;;;;;23.20;99.90;;;;;;5070545;28;19916;-85